Time;durP1;ratioP1;P1;durP2;ratioP2;P2;SDS_P1;SDS_P2;PMS_P1;PMS_P2;Temp;Humidity;BMP_temperature;BMP_pressure;BME280_temperature;BME280_humidity;BME280_pressure;Samples;Min_cycle;Max_cycle;Signal;HPM_P1;HPM_P2
2023/08/20 00:03:36;;;;;;;5.35;4.63;;;;;;;29.05;47.66;101537.00;20998124;28;20385;-56
2023/08/20 00:13:38;;;;;;;4.10;3.60;;;;;;;29.05;47.63;101549.13;20998653;28;20033;-56
2023/08/20 00:23:40;;;;;;;5.85;3.88;;;;;;;29.04;47.71;101560.69;20996489;28;20109;-56
2023/08/20 00:33:45;;;;;;;4.40;4.00;;;;;;;29.04;47.75;101580.41;20996708;28;20041;-54
2023/08/20 00:43:46;;;;;;;4.72;4.15;;;;;;;29.04;47.64;101592.50;20995111;28;20052;-58
2023/08/20 00:53:48;;;;;;;4.55;3.95;;;;;;;29.06;47.77;101614.75;20994527;28;20095;-56
2023/08/20 01:03:49;;;;;;;4.38;3.92;;;;;;;28.93;47.61;101612.81;20993731;28;20515;-58
2023/08/20 01:13:54;;;;;;;5.28;4.07;;;;;;;29.05;47.73;101636.47;20993522;28;20322;-56
2023/08/20 01:24:23;;;;;;;5.22;4.20;;;;;;;28.99;47.92;101645.34;20992762;28;20549;-58
2023/08/20 01:34:25;;;;;;;4.00;3.55;;;;;;;29.04;47.94;101648.03;20991856;28;20484;-57
2023/08/20 01:44:26;;;;;;;5.28;3.70;;;;;;;29.06;47.65;101634.47;20991912;28;20055;-56
2023/08/20 01:54:30;;;;;;;3.85;3.45;;;;;;;29.06;47.75;101651.38;21071243;28;20036;-57
2023/08/20 02:04:33;;;;;;;4.78;4.07;;;;;;;29.04;47.68;101648.88;21075116;28;20125;-57
2023/08/20 02:14:35;;;;;;;5.03;4.00;;;;;;;29.04;47.72;101664.94;21074567;28;20866;-58
2023/08/20 02:24:37;;;;;;;4.38;3.97;;;;;;;29.05;47.71;101675.09;21074452;28;20486;-58
2023/08/20 02:34:38;;;;;;;4.35;3.95;;;;;;;29.05;47.58;101672.28;21073923;28;20039;-58
2023/08/20 02:44:40;;;;;;;4.10;3.70;;;;;;;29.03;47.73;101678.22;21084528;28;20039;-56
2023/08/20 02:54:41;;;;;;;4.25;3.85;;;;;;;29.06;47.71;101685.19;21087643;28;20094;-57
2023/08/20 03:04:42;;;;;;;4.10;3.70;;;;;;;29.03;47.84;101692.28;21086878;28;20028;-56
2023/08/20 03:14:44;;;;;;;3.83;3.45;;;;;;;29.02;47.76;101695.44;21086676;28;20488;-59
2023/08/20 03:25:05;;;;;;;4.07;3.63;;;;;;;28.97;47.71;101685.13;21086258;28;20471;-57
2023/08/20 03:35:07;;;;;;;4.82;4.22;;;;;;;29.03;47.66;101692.28;21085387;28;20040;-57
2023/08/20 03:45:09;;;;;;;4.57;3.58;;;;;;;29.06;47.52;101700.13;21083999;28;20168;-56
2023/08/20 03:55:10;;;;;;;4.70;4.05;;;;;;;28.99;47.53;101696.06;21002327;28;20082;-56
2023/08/20 04:05:12;;;;;;;4.22;3.72;;;;;;;28.99;47.64;101718.59;20999827;28;20074;-57
2023/08/20 04:15:13;;;;;;;4.13;3.72;;;;;;;29.06;47.67;101719.03;20998868;28;20041;-57
2023/08/20 04:25:15;;;;;;;4.32;3.83;;;;;;;29.02;47.62;101729.25;20997592;28;20545;-56
2023/08/20 04:35:16;;;;;;;4.68;3.70;;;;;;;29.02;47.75;101717.97;20996489;28;20429;-56
2023/08/20 04:45:20;;;;;;;3.90;3.55;;;;;;;29.01;47.62;101724.78;20995898;28;20040;-58
2023/08/20 04:55:22;;;;;;;3.78;3.38;;;;;;;29.01;47.66;101727.59;20994080;28;20048;-57
2023/08/20 05:05:24;;;;;;;5.03;4.50;;;;;;;29.03;47.53;101716.81;20993921;28;20542;-57
2023/08/20 05:15:26;;;;;;;4.80;4.30;;;;;;;29.02;47.63;101715.16;20993904;28;20041;-58
2023/08/20 05:25:30;;;;;;;4.65;3.95;;;;;;;29.01;47.53;101722.78;20993442;28;20041;-58
2023/08/20 05:35:31;;;;;;;4.80;4.15;;;;;;;29.00;47.68;101725.91;20993697;28;20480;-58
2023/08/20 05:45:33;;;;;;;4.75;4.15;;;;;;;28.97;47.68;101716.13;20992791;28;20044;-57
2023/08/20 05:55:34;;;;;;;5.30;4.47;;;;;;;28.98;47.72;101711.31;20995400;28;20041;-58
2023/08/20 06:05:35;;;;;;;5.03;4.53;;;;;;;28.95;47.77;101714.72;20991953;28;20411;-58
2023/08/20 06:15:39;;;;;;;4.72;4.32;;;;;;;28.97;47.54;101727.38;20996974;28;20438;-56
2023/08/20 06:25:41;;;;;;;4.68;3.97;;;;;;;28.97;47.66;101724.56;21007278;28;20106;-59
2023/08/20 06:35:42;;;;;;;5.18;4.68;;;;;;;28.83;47.87;101704.03;21006874;28;20048;-59
2023/08/20 06:45:49;;;;;;;5.03;4.45;;;;;;;28.87;47.67;101725.63;21006019;28;20551;-58
2023/08/20 06:55:51;;;;;;;4.82;4.28;;;;;;;28.95;47.61;101734.44;21004737;28;20044;-57
2023/08/20 07:05:52;;;;;;;5.00;4.47;;;;;;;28.92;47.83;101737.91;21003968;28;20044;-57
2023/08/20 07:15:54;;;;;;;5.60;4.97;;;;;;;28.89;47.82;101747.81;21003221;28;20032;-58
2023/08/20 07:26:06;;;;;;;4.82;4.32;;;;;;;28.88;47.93;101747.00;21001548;28;20542;-58
2023/08/20 07:36:08;;;;;;;5.00;4.50;;;;;;;28.91;47.71;101736.22;21012644;28;20032;-58
2023/08/20 07:46:10;;;;;;;5.50;5.00;;;;;;;28.79;47.61;101737.63;21000250;28;20048;-58
2023/08/20 07:56:11;;;;;;;5.47;4.90;;;;;;;28.88;47.92;101766.72;21081937;28;20557;-56
2023/08/20 08:06:12;;;;;;;5.47;4.72;;;;;;;28.86;47.88;101768.16;21083291;28;20040;-59
2023/08/20 08:16:14;;;;;;;5.72;5.10;;;;;;;28.83;47.78;101778.09;21082033;28;20089;-58
2023/08/20 08:26:15;;;;;;;6.15;5.28;;;;;;;28.85;48.01;101772.97;21016638;28;20044;-59
2023/08/20 08:36:19;;;;;;;6.50;5.78;;;;;;;28.83;47.74;101783.72;20996585;28;20121;-57
2023/08/20 08:46:22;;;;;;;6.22;4.97;;;;;;;28.83;47.95;101789.38;20996439;28;20549;-58
2023/08/20 08:56:23;;;;;;;6.70;5.47;;;;;;;28.81;47.85;101794.47;20999254;28;20036;-58
2023/08/20 09:06:25;;;;;;;5.95;5.15;;;;;;;28.81;47.99;101807.72;20997635;28;20044;-58
2023/08/20 09:16:30;;;;;;;6.43;5.00;;;;;;;28.81;47.55;101814.19;20994647;28;20029;-58
2023/08/20 09:26:34;;;;;;;8.17;6.03;;;;;;;28.79;47.91;101819.31;20998356;28;20044;-58
2023/08/20 09:36:39;;;;;;;6.57;5.88;;;;;;;28.78;48.01;101831.72;21076887;28;20475;-58
2023/08/20 09:46:42;;;;;;;6.60;5.65;;;;;;;28.64;48.18;101816.81;21075856;28;20044;-57
2023/08/20 09:56:51;;;;;;;6.68;5.97;;;;;;;28.76;47.97;101853.72;21091260;28;20036;-57
2023/08/20 10:06:54;;;;;;;7.10;5.80;;;;;;;28.74;48.21;101858.84;21091102;28;20105;-57
2023/08/20 10:16:56;;;;;;;6.05;5.45;;;;;;;28.72;48.09;101877.19;21091383;28;20344;-56
2023/08/20 10:27:11;;;;;;;6.00;5.32;;;;;;;28.62;48.25;101873.44;21091153;28;20121;-57
2023/08/20 10:37:15;;;;;;;6.18;5.40;;;;;;;28.71;48.00;101890.44;21084805;28;20430;-58
2023/08/20 10:47:18;;;;;;;6.75;5.53;;;;;;;28.66;48.02;101899.00;21089630;28;20078;-58
2023/08/20 10:57:21;;;;;;;6.18;5.57;;;;;;;28.71;48.14;101907.34;21087778;28;20040;-58
2023/08/20 11:07:27;;;;;;;7.32;6.18;;;;;;;28.70;48.07;101918.94;21088206;28;20048;-57
2023/08/20 11:17:31;;;;;;;6.57;5.70;;;;;;;28.67;48.19;101902.66;21081270;28;20105;-58
2023/08/20 11:27:33;;;;;;;5.72;5.18;;;;;;;28.67;48.09;101917.56;21085974;28;20059;-58
2023/08/20 11:37:35;;;;;;;6.43;5.60;;;;;;;28.63;48.21;101908.06;21085357;28;20048;-58
2023/08/20 11:47:42;;;;;;;6.03;5.47;;;;;;;28.62;47.84;101900.75;21084742;28;20044;-57
2023/08/20 11:57:50;;;;;;;6.15;5.55;;;;;;;28.47;47.97;101884.16;21017617;28;20454;-57
2023/08/20 12:07:56;;;;;;;6.57;5.68;;;;;;;28.48;48.01;101891.47;20998829;28;20043;-57
2023/08/20 12:17:59;;;;;;;5.87;5.27;;;;;;;28.64;47.90;101926.66;20997453;28;20391;-56
2023/08/20 12:28:04;;;;;;;6.45;5.75;;;;;;;28.65;47.93;101933.94;21040674;28;20044;-58
2023/08/20 12:38:07;;;;;;;6.28;5.28;;;;;;;28.62;48.04;101924.13;21079728;28;20044;-57
2023/08/20 12:48:09;;;;;;;6.35;5.63;;;;;;;28.56;47.98;101924.53;21079485;28;20372;-57
2023/08/20 12:58:10;;;;;;;6.38;5.63;;;;;;;28.61;48.06;101938.53;21077038;28;20047;-56
2023/08/20 13:08:12;;;;;;;5.57;5.07;;;;;;;28.57;48.16;101935.50;21076975;28;20097;-57
2023/08/20 13:18:14;;;;;;;7.95;6.00;;;;;;;28.23;48.09;101859.81;21076786;28;20040;-56
2023/08/20 13:28:18;;;;;;;6.53;5.75;;;;;;;28.58;48.08;101939.97;21076741;28;20066;-58
2023/08/20 13:38:22;;;;;;;6.28;5.68;;;;;;;28.46;47.94;101924.75;21070829;28;20113;-60
2023/08/20 13:48:26;;;;;;;6.43;5.70;;;;;;;28.60;48.04;101945.31;21076589;28;20078;-57
2023/08/20 13:58:30;;;;;;;5.70;5.15;;;;;;;28.54;47.77;101935.25;21076286;28;20270;-56
2023/08/20 14:08:35;;;;;;;6.18;5.30;;;;;;;28.59;48.17;101954.88;21026556;28;20488;-59
2023/08/20 14:18:36;;;;;;;6.78;6.07;;;;;;;28.59;48.13;101974.59;20990698;28;20044;-57
2023/08/20 14:28:43;;;;;;;6.18;5.35;;;;;;;28.60;48.06;101965.84;20991334;28;20086;-57
2023/08/20 14:38:45;;;;;;;5.97;5.35;;;;;;;28.62;48.05;101968.34;21012715;28;20372;-58
2023/08/20 14:48:46;;;;;;;5.70;5.00;;;;;;;28.61;47.91;101969.50;21089141;28;20583;-58
2023/08/20 14:58:51;;;;;;;6.60;5.82;;;;;;;28.60;47.95;101965.03;21082038;28;20044;-55
2023/08/20 15:08:53;;;;;;;7.65;5.78;;;;;;;28.63;48.07;101970.03;21088129;28;20048;-58
2023/08/20 15:18:54;;;;;;;6.13;5.50;;;;;;;28.63;48.18;101958.75;21087125;28;20040;-59
2023/08/20 15:28:59;;;;;;;5.72;5.07;;;;;;;28.66;48.02;101948.88;21086012;28;20113;-57
2023/08/20 15:39:00;;;;;;;6.50;5.80;;;;;;;28.68;47.87;101955.84;21085095;28;20101;-58
2023/08/20 15:49:02;;;;;;;5.88;5.20;;;;;;;28.71;47.97;101937.50;21083755;28;20433;-58
2023/08/20 15:59:03;;;;;;;5.95;5.30;;;;;;;28.67;47.92;101920.38;21083457;28;20097;-57
2023/08/20 16:09:12;;;;;;;5.97;5.38;;;;;;;28.74;47.92;101915.19;21082808;28;20052;-59
2023/08/20 16:19:22;;;;;;;6.82;5.47;;;;;;;28.76;47.94;101914.88;21081779;28;20031;-59
2023/08/20 16:29:24;;;;;;;6.00;5.40;;;;;;;28.78;47.78;101910.59;21081625;28;20379;-58
2023/08/20 16:39:26;;;;;;;6.18;5.57;;;;;;;28.78;47.78;101898.50;21080760;28;20098;-58
2023/08/20 16:49:27;;;;;;;6.40;5.75;;;;;;;28.82;47.80;101889.13;21080127;28;20392;-55
2023/08/20 16:59:29;;;;;;;5.88;5.28;;;;;;;28.77;47.97;101877.97;21073253;28;20047;-60
2023/08/20 17:09:32;;;;;;;5.88;5.28;;;;;;;28.71;47.93;101841.75;21059737;28;20097;-56
2023/08/20 17:19:33;;;;;;;7.20;5.85;;;;;;;28.88;47.86;101851.22;21078055;28;20035;-57
2023/08/20 17:29:35;;;;;;;7.05;6.25;;;;;;;28.92;47.94;101848.63;21077922;28;20442;-58
2023/08/20 17:39:36;;;;;;;7.07;6.38;;;;;;;28.93;47.74;101843.81;21076871;28;20036;-57
2023/08/20 17:49:37;;;;;;;6.82;5.80;;;;;;;28.91;47.82;101824.44;21076666;28;20036;-57
2023/08/20 17:59:39;;;;;;;6.32;5.70;;;;;;;28.97;47.87;101833.63;21076047;28;20105;-57
2023/08/20 18:09:40;;;;;;;7.05;6.35;;;;;;;28.99;47.48;101831.31;21078018;28;20055;-57
2023/08/20 18:19:42;;;;;;;6.70;6.10;;;;;;;29.04;47.71;101832.03;21091968;28;20113;-54
2023/08/20 18:29:47;;;;;;;7.13;5.88;;;;;;;29.08;47.88;101815.34;21089231;28;20097;-57
2023/08/20 18:39:48;;;;;;;6.68;5.95;;;;;;;29.12;47.63;101802.28;21090387;28;20081;-57
2023/08/20 18:49:49;;;;;;;6.97;6.28;;;;;;;29.14;47.61;101800.00;21089102;28;20069;-57
2023/08/20 18:59:51;;;;;;;8.30;6.97;;;;;;;29.16;47.29;101792.03;21082745;28;20105;-58
2023/08/20 19:09:53;;;;;;;7.15;6.18;;;;;;;29.17;47.57;101775.97;21087268;28;20054;-56
2023/08/20 19:19:54;;;;;;;7.57;6.60;;;;;;;29.24;47.57;101767.91;21086150;28;20036;-57
2023/08/20 19:29:57;;;;;;;7.03;6.32;;;;;;;29.21;47.34;101760.91;21085257;28;20032;-56
2023/08/20 19:40:00;;;;;;;8.15;6.45;;;;;;;29.20;47.49;101752.78;21043196;28;20101;-56
2023/08/20 19:50:02;;;;;;;8.07;6.60;;;;;;;29.21;47.49;101744.00;21000785;28;20110;-58
2023/08/20 20:00:08;;;;;;;7.43;6.55;;;;;;;29.26;47.60;101740.22;21000343;28;20048;-57
2023/08/20 20:10:10;;;;;;;7.88;7.07;;;;;;;29.25;47.34;101728.13;20999471;28;20134;-58
2023/08/20 20:20:12;;;;;;;8.10;6.93;;;;;;;29.25;47.61;101725.31;21073081;28;20052;-57
2023/08/20 20:30:13;;;;;;;7.45;6.68;;;;;;;29.25;47.73;101719.66;21081675;28;20020;-56
2023/08/20 20:40:15;;;;;;;7.72;6.93;;;;;;;29.23;47.49;101716.34;21080228;28;20519;-56
2023/08/20 20:50:16;;;;;;;7.97;6.95;;;;;;;29.23;47.48;101719.16;21080296;28;20483;-57
2023/08/20 21:00:18;;;;;;;8.02;7.00;;;;;;;29.23;47.52;101724.81;21078371;28;20070;-58
2023/08/20 21:10:22;;;;;;;7.80;7.03;;;;;;;29.22;47.65;101725.94;21077874;28;20032;-57
2023/08/20 21:20:24;;;;;;;7.82;7.03;;;;;;;29.22;47.93;101717.47;21076900;28;20043;-57
2023/08/20 21:30:25;;;;;;;7.75;6.95;;;;;;;29.22;47.81;101706.19;21076516;28;20043;-56
2023/08/20 21:40:26;;;;;;;7.97;7.18;;;;;;;29.21;47.83;101701.72;21076531;28;20052;-56
2023/08/20 21:50:28;;;;;;;7.90;7.10;;;;;;;29.19;47.93;101706.03;21075100;28;20047;-58
2023/08/20 22:00:29;;;;;;;8.43;7.32;;;;;;;29.04;47.67;101696.78;21075409;28;20040;-59
2023/08/20 22:10:31;;;;;;;8.10;7.30;;;;;;;29.18;47.76;101716.44;21074807;28;20040;-58
2023/08/20 22:20:32;;;;;;;8.30;7.50;;;;;;;29.17;47.44;101711.97;21068483;28;20093;-57
2023/08/20 22:30:38;;;;;;;8.23;7.43;;;;;;;29.18;47.62;101724.91;21074821;28;20169;-58
2023/08/20 22:40:39;;;;;;;8.80;7.90;;;;;;;29.16;47.64;101730.03;21074876;28;20073;-58
2023/08/20 22:50:41;;;;;;;8.20;7.35;;;;;;;29.15;47.61;101727.53;21074011;28;20032;-56
2023/08/20 23:00:42;;;;;;;9.05;8.05;;;;;;;29.13;47.69;101725.03;21082387;28;20048;-58
2023/08/20 23:10:44;;;;;;;8.73;7.43;;;;;;;29.12;47.67;101723.38;21088131;28;20051;-58
2023/08/20 23:21:15;;;;;;;8.27;7.35;;;;;;;29.11;47.67;101722.53;21086929;28;20047;-57
2023/08/20 23:31:17;;;;;;;9.00;8.10;;;;;;;29.11;47.76;101718.88;21083670;28;20483;-58
2023/08/20 23:41:18;;;;;;;8.48;7.50;;;;;;;29.09;47.59;101696.69;21085565;28;20040;-58
2023/08/20 23:51:19;;;;;;;8.43;7.53;;;;;;;29.06;47.47;101702.09;21084160;28;20097;-58
